Fairwater, Wisconsin
Current Conditions -  °F | °C
As of 5:53 AM on Saturday 25 Oct 2014 (Local Time) from KFLD Reporting Station
Haze Haze  
Wind Chill: 55°   Ceiling: Unl
Heat Index: 55°   Visibility: 6mi
Dew Point: 52°   Wind: 7mph
Humidity: 89%   Direction: 250°WSW
Pressure: 29.86"   Gusts: NA
Location:  43.74°N, 88.87°W
Report Text: KFLD 251053Z AUTO 25006KT 6SM BR CLR 13/11 A2986 RMK AO2 SLP111 T01280111
Loading
Personal Weather Stations






























Interactive Weather Map
Tropical Storm Tracking
New forecast layout! Learn more

10-Day Weather Forecast

Advertisements
Track Severe Weather on mobile